Time;durP1;ratioP1;P1;durP2;ratioP2;P2;SDS_P1;SDS_P2;PMS_P1;PMS_P2;Temp;Humidity;BMP_temperature;BMP_pressure;BME280_temperature;BME280_humidity;BME280_pressure;Samples;Min_cycle;Max_cycle;Signal;HPM_P1;HPM_P2
2023/07/17 00:01:20;;;;;;;7.93;4.97;;;26.80;99.90;;;;;;5074674;28;20372;-58
2023/07/17 00:03:46;;;;;;;8.18;4.57;;;26.90;99.90;;;;;;5074472;28;20028;-56
2023/07/17 00:06:12;;;;;;;5.32;3.80;;;26.90;99.90;;;;;;5089643;28;20032;-59
2023/07/17 00:08:37;;;;;;;5.80;4.50;;;26.80;99.90;;;;;;5071759;28;20498;-55
2023/07/17 00:11:03;;;;;;;5.82;4.57;;;26.80;99.90;;;;;;5074309;28;20430;-61
2023/07/17 00:13:29;;;;;;;5.70;3.92;;;26.70;99.90;;;;;;5074345;28;20112;-57
2023/07/17 00:15:55;;;;;;;6.28;4.28;;;26.70;99.90;;;;;;5074694;28;20025;-59
2023/07/17 00:18:20;;;;;;;7.70;4.00;;;26.70;99.90;;;;;;5074527;28;20028;-58
2023/07/17 00:20:46;;;;;;;8.18;4.40;;;26.70;99.90;;;;;;5071646;28;20036;-59
2023/07/17 00:23:12;;;;;;;6.55;4.47;;;26.80;99.90;;;;;;5082952;28;20028;-60
2023/07/17 00:25:38;;;;;;;5.47;4.13;;;26.80;99.90;;;;;;5094198;28;20062;-56
2023/07/17 00:28:04;;;;;;;6.88;3.75;;;26.80;99.90;;;;;;5094547;28;20491;-59
2023/07/17 00:30:29;;;;;;;6.45;4.45;;;26.80;99.90;;;;;;5094595;28;20515;-60
2023/07/17 00:32:55;;;;;;;5.40;4.32;;;26.80;99.90;;;;;;5081296;28;20111;-59
2023/07/17 00:35:21;;;;;;;7.80;4.00;;;26.90;99.90;;;;;;5067743;28;20388;-59
2023/07/17 00:37:46;;;;;;;5.35;3.58;;;26.90;99.90;;;;;;5074285;28;20032;-56
2023/07/17 00:40:13;;;;;;;5.15;4.03;;;26.90;99.90;;;;;;5074087;28;20028;-60
2023/07/17 00:42:39;;;;;;;5.95;4.13;;;26.90;99.90;;;;;;5073910;28;20033;-57
2023/07/17 00:45:06;;;;;;;5.95;4.40;;;26.90;99.90;;;;;;5070034;28;20044;-58
2023/07/17 00:47:32;;;;;;;6.47;3.97;;;26.80;99.90;;;;;;5081356;28;20403;-59
2023/07/17 00:49:59;;;;;;;6.90;4.28;;;26.90;99.90;;;;;;5073734;28;20032;-61
2023/07/17 00:52:27;;;;;;;5.30;4.30;;;26.90;99.90;;;;;;5073672;28;20021;-57
2023/07/17 00:54:53;;;;;;;10.63;4.25;;;26.90;99.90;;;;;;5087806;28;20063;-56
2023/07/17 00:57:22;;;;;;;7.63;4.45;;;27.00;99.90;;;;;;5071034;28;20083;-59
2023/07/17 00:59:50;;;;;;;9.52;4.32;;;27.00;99.90;;;;;;5074046;28;20032;-58
2023/07/17 01:02:16;;;;;;;6.70;4.28;;;27.10;99.90;;;;;;5073581;28;20113;-58
2023/07/17 01:04:46;;;;;;;7.10;4.32;;;27.10;99.90;;;;;;5073621;28;20033;-60
2023/07/17 01:07:12;;;;;;;7.18;4.82;;;;;;;;;;5072004;28;20029;-57
2023/07/17 01:09:38;;;;;;;6.25;4.55;;;26.50;99.90;;;;;;5071257;28;20043;-58
2023/07/17 01:12:04;;;;;;;5.60;4.47;;;26.50;99.90;;;;;;5088318;28;20040;-60
2023/07/17 01:14:30;;;;;;;5.22;4.15;;;;;;;;;;5073445;28;20029;-59
2023/07/17 01:16:56;;;;;;;8.40;4.75;;;;;;;;;;5088230;28;20039;-60
2023/07/17 01:19:22;;;;;;;8.65;4.72;;;26.60;99.90;;;;;;5086838;28;20041;-56
2023/07/17 01:22:20;;;;;;;6.07;4.68;;;26.70;99.90;;;;;;5102505;28;20047;-60
2023/07/17 01:24:45;;;;;;;5.60;4.15;;;26.80;99.90;;;;;;5092982;28;20032;-57
2023/07/17 01:27:12;;;;;;;5.78;4.55;;;26.80;99.90;;;;;;5091391;28;20078;-57
2023/07/17 01:29:38;;;;;;;5.75;4.53;;;26.80;99.90;;;;;;5093341;28;20165;-60
2023/07/17 01:32:04;;;;;;;10.05;5.03;;;26.70;99.90;;;;;;5087109;28;20547;-58
2023/07/17 01:34:30;;;;;;;6.85;4.72;;;26.70;99.90;;;;;;5071841;28;20487;-58
2023/07/17 01:36:56;;;;;;;6.65;4.82;;;;;;;;;;5087890;28;20032;-59
2023/07/17 01:39:24;;;;;;;6.97;4.80;;;25.80;99.90;;;;;;5072748;28;20035;-60
2023/07/17 01:41:50;;;;;;;8.27;4.70;;;25.50;99.90;;;;;;5054488;28;20047;-59
2023/07/17 01:44:16;;;;;;;7.13;4.82;;;25.70;99.90;;;;;;5069589;28;20107;-60
2023/07/17 01:46:42;;;;;;;8.10;4.63;;;25.80;99.90;;;;;;5070625;28;20032;-59
2023/07/17 01:49:07;;;;;;;7.65;4.88;;;25.80;99.90;;;;;;5087484;28;20044;-60
2023/07/17 01:51:33;;;;;;;10.25;4.53;;;25.80;99.90;;;;;;5072372;28;20020;-57
2023/07/17 01:53:59;;;;;;;8.57;4.82;;;25.90;99.90;;;;;;5072851;28;20495;-55
2023/07/17 01:56:25;;;;;;;6.47;3.95;;;26.00;99.90;;;;;;5069536;28;20021;-55
2023/07/17 01:58:51;;;;;;;7.80;5.18;;;26.10;99.90;;;;;;5087211;28;20388;-59
2023/07/17 02:01:16;;;;;;;6.10;4.65;;;26.20;99.90;;;;;;5072459;28;20032;-60
2023/07/17 02:03:42;;;;;;;7.57;4.63;;;26.20;99.90;;;;;;5073226;28;20036;-60
2023/07/17 02:06:08;;;;;;;8.45;5.03;;;26.20;99.90;;;;;;5071043;28;20428;-60
2023/07/17 02:08:34;;;;;;;6.75;4.68;;;26.20;99.90;;;;;;5077615;28;20036;-59
2023/07/17 02:11:00;;;;;;;7.00;4.75;;;26.30;99.90;;;;;;5078681;28;20029;-58
2023/07/17 02:13:25;;;;;;;5.93;4.38;;;26.30;99.90;;;;;;5043493;28;20530;-59
2023/07/17 02:15:51;;;;;;;6.85;4.70;;;26.30;99.90;;;;;;5077552;28;20123;-60
2023/07/17 02:18:17;;;;;;;8.30;4.63;;;26.30;99.90;;;;;;5095173;28;20047;-57
2023/07/17 02:20:43;;;;;;;7.07;5.20;;;26.40;99.90;;;;;;5079644;28;21012;-57
2023/07/17 02:23:08;;;;;;;6.88;4.55;;;26.40;99.90;;;;;;5093116;28;20032;-60
2023/07/17 02:25:34;;;;;;;5.40;4.47;;;26.40;99.90;;;;;;5082238;28;20062;-58
2023/07/17 02:28:00;;;;;;;6.13;4.60;;;26.40;99.90;;;;;;5094064;28;20488;-58
2023/07/17 02:30:26;;;;;;;8.48;5.50;;;26.30;99.90;;;;;;5078858;28;20479;-55
2023/07/17 02:32:51;;;;;;;6.35;4.80;;;26.40;99.90;;;;;;5077681;28;20068;-57
2023/07/17 02:35:17;;;;;;;7.13;5.45;;;26.20;99.90;;;;;;5079443;28;20384;-59
2023/07/17 02:37:43;;;;;;;5.93;5.00;;;26.20;99.90;;;;;;5079398;28;20028;-59
2023/07/17 02:40:12;;;;;;;8.23;5.35;;;26.20;99.90;;;;;;5080945;28;20031;-59
2023/07/17 02:42:39;;;;;;;8.15;5.90;;;26.20;99.90;;;;;;5042674;28;20048;-57
2023/07/17 02:45:07;;;;;;;10.35;6.55;;;26.20;99.90;;;;;;5079075;28;20060;-57
2023/07/17 02:47:33;;;;;;;10.35;5.78;;;26.20;99.90;;;;;;5056824;28;20052;-59
2023/07/17 02:49:58;;;;;;;7.40;5.93;;;26.30;99.90;;;;;;5057539;28;20056;-57
2023/07/17 02:52:24;;;;;;;7.38;5.82;;;26.30;99.90;;;;;;5079567;28;20101;-58
2023/07/17 02:54:50;;;;;;;10.60;6.00;;;26.30;99.90;;;;;;5079379;28;20622;-56
2023/07/17 02:57:16;;;;;;;7.22;5.63;;;26.30;99.90;;;;;;5061104;28;20416;-59
2023/07/17 02:59:42;;;;;;;8.55;6.43;;;26.10;99.90;;;;;;5082385;28;20040;-59
2023/07/17 03:02:08;;;;;;;8.13;6.28;;;25.80;99.90;;;;;;5081932;28;20089;-56
2023/07/17 03:04:34;;;;;;;7.22;6.30;;;25.80;99.90;;;;;;5069572;28;20704;-56
2023/07/17 03:06:59;;;;;;;7.68;6.22;;;25.90;99.90;;;;;;5082392;28;20632;-57
2023/07/17 03:09:26;;;;;;;12.27;6.95;;;25.80;99.90;;;;;;5091697;28;20043;-57
2023/07/17 03:11:52;;;;;;;7.53;5.90;;;25.80;99.90;;;;;;5084216;28;20028;-60
2023/07/17 03:14:18;;;;;;;6.72;5.78;;;25.80;99.90;;;;;;5081576;28;20353;-60
2023/07/17 03:16:44;;;;;;;9.95;5.90;;;25.80;99.90;;;;;;5083831;28;20040;-58
2023/07/17 03:19:10;;;;;;;8.50;6.00;;;25.90;99.90;;;;;;5064478;28;20031;-57
2023/07/17 03:21:35;;;;;;;11.73;6.80;;;25.90;99.90;;;;;;5083283;28;20032;-59
2023/07/17 03:24:01;;;;;;;7.32;5.78;;;26.10;99.90;;;;;;5081648;28;20024;-59
2023/07/17 03:26:27;;;;;;;12.18;5.68;;;26.10;99.90;;;;;;5062130;28;20472;-61
2023/07/17 03:28:53;;;;;;;7.75;5.55;;;26.10;99.90;;;;;;5081786;28;20127;-58
2023/07/17 03:31:19;;;;;;;7.43;4.80;;;25.90;99.90;;;;;;5097762;28;20040;-60
2023/07/17 03:33:44;;;;;;;9.07;5.90;;;26.00;99.90;;;;;;5083109;28;20036;-60
2023/07/17 03:36:10;;;;;;;7.78;5.20;;;26.00;99.90;;;;;;5080239;28;20387;-57
2023/07/17 03:38:36;;;;;;;7.88;5.80;;;25.90;99.90;;;;;;5079907;28;20036;-57
2023/07/17 03:41:03;;;;;;;7.72;5.28;;;25.90;99.90;;;;;;5082438;28;20039;-56
2023/07/17 03:43:28;;;;;;;9.82;5.55;;;25.90;99.90;;;;;;5082941;28;20032;-59
2023/07/17 03:45:54;;;;;;;6.45;4.95;;;26.00;99.90;;;;;;5079339;28;20517;-59
2023/07/17 03:48:20;;;;;;;7.28;5.05;;;26.10;99.90;;;;;;5080965;28;20131;-59
2023/07/17 03:50:48;;;;;;;6.00;5.15;;;26.10;99.90;;;;;;5082013;28;20021;-57
2023/07/17 03:53:13;;;;;;;9.13;5.07;;;26.20;99.90;;;;;;5080633;28;20032;-55
2023/07/17 03:55:39;;;;;;;7.65;5.00;;;26.20;99.90;;;;;;5081064;28;20499;-57
2023/07/17 03:58:08;;;;;;;8.40;5.15;;;25.90;99.90;;;;;;5080450;28;20051;-60
2023/07/17 04:00:33;;;;;;;8.70;5.03;;;25.70;99.90;;;;;;5061541;28;20490;-57
2023/07/17 04:02:59;;;;;;;8.48;5.35;;;25.60;99.90;;;;;;5079450;28;20036;-57
2023/07/17 04:05:25;;;;;;;7.40;4.60;;;25.60;99.90;;;;;;5079190;28;20126;-58
2023/07/17 04:07:51;;;;;;;5.55;4.68;;;25.70;99.90;;;;;;5045320;28;20052;-55
2023/07/17 04:10:17;;;;;;;6.65;4.63;;;25.70;99.90;;;;;;5078067;28;20039;-59
2023/07/17 04:12:43;;;;;;;7.75;5.05;;;25.50;99.90;;;;;;5057290;28;20124;-56
2023/07/17 04:15:09;;;;;;;8.77;5.05;;;25.40;99.90;;;;;;5079416;28;20024;-57
2023/07/17 04:17:35;;;;;;;5.95;4.78;;;25.50;99.90;;;;;;5080739;28;20035;-56
2023/07/17 04:20:02;;;;;;;7.82;5.00;;;25.60;99.90;;;;;;5074113;28;20028;-57
2023/07/17 04:22:28;;;;;;;6.28;4.85;;;25.90;99.90;;;;;;5079829;28;20097;-59
2023/07/17 04:24:53;;;;;;;7.35;5.38;;;26.10;99.90;;;;;;5082340;28;20235;-59
2023/07/17 04:27:19;;;;;;;7.07;5.15;;;26.20;99.90;;;;;;5080385;28;20036;-58
2023/07/17 04:29:45;;;;;;;6.00;4.38;;;25.90;99.90;;;;;;5057662;28;20106;-60
2023/07/17 04:32:10;;;;;;;7.35;5.45;;;25.90;99.90;;;;;;5095896;28;20049;-61
2023/07/17 04:34:36;;;;;;;8.00;5.05;;;25.80;99.90;;;;;;5080592;28;20024;-58
2023/07/17 04:37:03;;;;;;;9.35;5.05;;;25.90;99.90;;;;;;5083462;28;20036;-58
2023/07/17 04:39:28;;;;;;;7.93;5.63;;;26.00;99.90;;;;;;5063663;28;20040;-60
2023/07/17 04:41:56;;;;;;;7.57;5.65;;;25.80;99.90;;;;;;5067854;28;20376;-61
2023/07/17 04:44:21;;;;;;;11.05;5.70;;;26.00;99.90;;;;;;5083186;28;20047;-58
2023/07/17 04:46:47;;;;;;;6.45;5.53;;;26.10;99.90;;;;;;5083598;28;20024;-59
2023/07/17 04:49:13;;;;;;;9.25;5.20;;;26.20;99.90;;;;;;5063984;28;20105;-60
2023/07/17 04:51:39;;;;;;;7.80;5.47;;;26.00;99.90;;;;;;5060075;28;20054;-58
2023/07/17 04:54:04;;;;;;;8.40;6.10;;;26.20;99.90;;;;;;5078697;28;20036;-59
2023/07/17 04:56:30;;;;;;;8.02;5.90;;;26.50;99.90;;;;;;5080295;28;20036;-59
2023/07/17 04:58:57;;;;;;;8.75;6.03;;;26.60;99.90;;;;;;5078009;28;20712;-59
2023/07/17 05:01:22;;;;;;;9.15;5.93;;;26.60;99.90;;;;;;5078818;28;20111;-59
2023/07/17 05:03:48;;;;;;;7.28;5.82;;;26.90;99.90;;;;;;5088992;28;20128;-57
2023/07/17 05:06:14;;;;;;;9.02;6.32;;;26.90;99.90;;;;;;5080027;28;20059;-57
2023/07/17 05:08:39;;;;;;;14.02;7.88;;;27.00;99.90;;;;;;5036403;28;20055;-56
2023/07/17 05:11:05;;;;;;;9.90;7.68;;;27.00;99.90;;;;;;5059770;28;20036;-56
2023/07/17 05:13:31;;;;;;;8.90;6.97;;;27.10;99.90;;;;;;5076289;28;20064;-56
2023/07/17 05:15:57;;;;;;;10.32;7.70;;;27.20;99.90;;;;;;5073864;28;20020;-56
2023/07/17 05:18:23;;;;;;;8.15;7.32;;;;;;;;;;5080503;28;20131;-57
2023/07/17 05:20:50;;;;;;;10.30;8.40;;;27.50;99.90;;;;;;5080882;28;20047;-55
2023/07/17 05:23:16;;;;;;;10.80;7.50;;;27.70;99.90;;;;;;5090667;28;20032;-57
2023/07/17 05:25:52;;;;;;;11.18;8.30;;;27.70;99.90;;;;;;5079317;28;20032;-56
2023/07/17 05:28:18;;;;;;;10.05;7.68;;;27.80;99.90;;;;;;5057030;28;20130;-57
2023/07/17 05:30:44;;;;;;;12.63;8.55;;;;;;;;;;5079300;28;20554;-57
2023/07/17 05:33:10;;;;;;;11.65;7.82;;;28.50;99.90;;;;;;5079704;28;20456;-57
2023/07/17 05:35:36;;;;;;;11.25;8.13;;;;;;;;;;5079810;28;20039;-57
2023/07/17 05:38:02;;;;;;;11.43;8.07;;;;;;;;;;5079647;28;20031;-57
2023/07/17 05:40:28;;;;;;;9.32;7.45;;;;;;;;;;5081442;28;20034;-57
2023/07/17 05:42:54;;;;;;;11.75;7.88;;;;;;;;;;5079816;28;20093;-57
2023/07/17 05:45:20;;;;;;;9.93;7.28;;;28.80;99.90;;;;;;5043677;28;20063;-58
2023/07/17 05:47:46;;;;;;;9.07;8.13;;;;;;;;;;5080668;28;20553;-56
2023/07/17 05:50:12;;;;;;;8.73;7.75;;;;;;;;;;5078290;28;20023;-57
2023/07/17 05:52:38;;;;;;;10.18;7.78;;;;;;;;;;5078860;28;20055;-56
2023/07/17 05:55:04;;;;;;;8.68;7.15;;;;;;;;;;5057588;28;20032;-56
2023/07/17 05:57:31;;;;;;;9.85;7.15;;;;;;;;;;5077047;28;20055;-56
2023/07/17 05:59:57;;;;;;;9.93;6.60;;;;;;;;;;5079027;28;20499;-57
2023/07/17 06:02:23;;;;;;;11.57;6.35;;;;;;;;;;5079071;28;20036;-57
2023/07/17 06:04:49;;;;;;;8.88;6.88;;;;;;;;;;5095254;28;20036;-57
2023/07/17 06:07:14;;;;;;;12.68;7.72;;;29.70;99.90;;;;;;5093503;28;20048;-58
2023/07/17 06:09:40;;;;;;;9.48;7.32;;;29.70;99.90;;;;;;5080569;28;20372;-58
2023/07/17 06:12:07;;;;;;;10.00;6.53;;;;;;;;;;5080012;28;20025;-57
2023/07/17 06:14:33;;;;;;;9.63;6.50;;;;;;;;;;5056805;28;20032;-57
2023/07/17 06:16:59;;;;;;;8.02;6.45;;;;;;;;;;5082517;28;20380;-57
2023/07/17 06:19:25;;;;;;;9.38;6.93;;;;;;;;;;5073924;28;20406;-57
2023/07/17 06:21:51;;;;;;;8.82;7.28;;;;;;;;;;5080734;28;20086;-57
2023/07/17 06:24:17;;;;;;;8.55;6.47;;;;;;;;;;5081302;28;20025;-57
2023/07/17 06:26:43;;;;;;;10.80;7.28;;;30.60;99.90;;;;;;5089415;28;20033;-57
2023/07/17 06:29:10;;;;;;;9.30;7.05;;;;;;;;;;5078807;28;20462;-59
2023/07/17 06:31:37;;;;;;;9.68;6.82;;;30.80;99.90;;;;;;5063386;28;20050;-59
2023/07/17 06:34:03;;;;;;;10.80;6.90;;;31.00;99.90;;;;;;5085469;28;20166;-58
2023/07/17 06:36:32;;;;;;;7.93;5.80;;;;;;;;;;5084309;28;20560;-58
2023/07/17 06:38:58;;;;;;;9.70;6.88;;;;;;;;;;5081840;28;20039;-59
2023/07/17 06:41:25;;;;;;;13.38;6.57;;;;;;;;;;5097434;28;20043;-59
2023/07/17 06:43:51;;;;;;;10.23;6.28;;;;;;;;;;5081951;28;20041;-59
2023/07/17 06:46:17;;;;;;;8.35;6.28;;;;;;;;;;5064200;28;20040;-59
2023/07/17 06:48:43;;;;;;;9.02;6.53;;;;;;;;;;5082471;28;20040;-59
2023/07/17 06:51:09;;;;;;;8.57;6.25;;;31.60;99.90;;;;;;5062215;28;20066;-59
2023/07/17 06:53:35;;;;;;;7.95;6.20;;;;;;;;;;5064107;28;20086;-59
2023/07/17 06:56:01;;;;;;;10.45;6.28;;;31.90;99.90;;;;;;5078908;28;20168;-59
2023/07/17 06:58:27;;;;;;;9.52;6.65;;;32.10;99.90;;;;;;5081897;28;20306;-59
2023/07/17 07:00:59;;;;;;;8.75;6.85;;;32.30;99.90;;;;;;5083134;28;20025;-59
2023/07/17 07:03:26;;;;;;;7.30;6.38;;;32.30;99.90;;;;;;5082398;28;20031;-59
2023/07/17 07:06:01;;;;;;;8.63;7.30;;;;;;;;;;5082343;28;20028;-59
2023/07/17 07:08:29;;;;;;;8.73;6.95;;;32.40;99.90;;;;;;5082413;28;20113;-59
2023/07/17 07:10:56;;;;;;;13.20;6.45;;;32.50;99.90;;;;;;5081841;28;20388;-59
2023/07/17 07:13:23;;;;;;;8.60;6.32;;;32.60;99.90;;;;;;5081839;28;20476;-59
2023/07/17 07:15:50;;;;;;;7.75;6.10;;;;;;;;;;5082935;28;20029;-59
2023/07/17 07:18:17;;;;;;;10.43;6.50;;;32.90;99.90;;;;;;5080487;28;20047;-59
2023/07/17 07:20:44;;;;;;;9.60;6.30;;;32.50;99.90;;;;;;5073751;28;20035;-59
2023/07/17 07:23:10;;;;;;;7.75;5.70;;;32.40;99.90;;;;;;5080961;28;20044;-59
2023/07/17 07:25:36;;;;;;;7.80;5.55;;;32.70;99.90;;;;;;5082279;28;20036;-59
2023/07/17 07:28:03;;;;;;;8.43;5.95;;;32.60;99.90;;;;;;5053974;28;20040;-59
2023/07/17 07:30:29;;;;;;;7.70;5.15;;;32.60;99.90;;;;;;5084289;28;20121;-59
2023/07/17 07:32:55;;;;;;;6.78;5.07;;;32.90;99.90;;;;;;5080328;28;20028;-59
2023/07/17 07:35:20;;;;;;;8.35;5.97;;;33.20;99.90;;;;;;5081641;28;20032;-59
2023/07/17 07:37:46;;;;;;;8.43;5.75;;;33.40;99.90;;;;;;5080927;28;20067;-59
2023/07/17 07:40:13;;;;;;;8.82;5.90;;;;;;;;;;5080036;28;20108;-59
2023/07/17 07:42:39;;;;;;;8.75;6.35;;;33.70;99.90;;;;;;5079599;28;20064;-59
2023/07/17 07:45:05;;;;;;;9.82;5.55;;;33.90;99.90;;;;;;5078540;28;20062;-59
2023/07/17 07:47:32;;;;;;;7.55;5.85;;;33.80;99.90;;;;;;5066699;28;20060;-60
2023/07/17 07:49:58;;;;;;;9.25;4.97;;;33.90;99.90;;;;;;5083552;28;20124;-59
2023/07/17 07:52:24;;;;;;;7.38;6.28;;;34.10;99.90;;;;;;5078371;28;20029;-59
2023/07/17 07:54:49;;;;;;;11.80;5.72;;;34.00;99.90;;;;;;5075871;28;20048;-59
2023/07/17 07:57:15;;;;;;;6.82;5.30;;;34.10;99.90;;;;;;5055009;28;20122;-60
2023/07/17 07:59:41;;;;;;;8.65;5.53;;;34.40;99.90;;;;;;5055795;28;20079;-59
2023/07/17 08:02:07;;;;;;;7.80;5.40;;;34.40;99.90;;;;;;5055312;28;20493;-59
2023/07/17 08:04:33;;;;;;;5.93;5.15;;;34.30;99.90;;;;;;5024893;28;20041;-59
2023/07/17 08:06:58;;;;;;;7.85;5.90;;;34.10;99.90;;;;;;5053960;28;20029;-59
2023/07/17 08:09:25;;;;;;;8.27;5.45;;;34.10;99.90;;;;;;5054548;28;20037;-59
2023/07/17 08:11:52;;;;;;;6.05;4.57;;;34.00;99.90;;;;;;5057048;28;20159;-59
2023/07/17 08:14:20;;;;;;;7.13;5.28;;;33.90;99.90;;;;;;5054623;28;20035;-59
2023/07/17 08:16:47;;;;;;;7.57;5.93;;;34.20;99.90;;;;;;5055455;28;20052;-59
2023/07/17 08:19:12;;;;;;;8.93;5.85;;;34.60;99.90;;;;;;5055675;28;20032;-59
2023/07/17 08:21:38;;;;;;;10.45;6.13;;;34.70;99.90;;;;;;5057441;28;20477;-59
2023/07/17 08:24:05;;;;;;;6.63;5.95;;;34.90;99.90;;;;;;5068224;28;20430;-59
2023/07/17 08:26:31;;;;;;;8.35;6.72;;;34.90;99.90;;;;;;5041685;28;20081;-59
2023/07/17 08:28:57;;;;;;;9.75;6.47;;;34.90;99.90;;;;;;5077598;28;20044;-59
2023/07/17 08:31:23;;;;;;;8.25;6.60;;;35.00;99.90;;;;;;5077812;28;20056;-59
2023/07/17 08:33:49;;;;;;;8.63;6.13;;;35.30;99.90;;;;;;5076925;28;20028;-59
2023/07/17 08:36:14;;;;;;;9.32;6.55;;;35.40;99.90;;;;;;5080286;28;20028;-59
2023/07/17 08:38:40;;;;;;;10.30;6.53;;;;;;;;;;5081142;28;20077;-60
2023/07/17 08:41:07;;;;;;;7.82;6.13;;;35.70;99.90;;;;;;5061346;28;20044;-59
2023/07/17 08:43:35;;;;;;;7.00;5.70;;;35.70;99.90;;;;;;5081315;28;20127;-59
2023/07/17 08:46:02;;;;;;;7.22;6.03;;;35.70;99.90;;;;;;5079793;28;20394;-59
2023/07/17 08:48:29;;;;;;;6.75;5.80;;;35.90;99.90;;;;;;5080870;28;20044;-59
2023/07/17 08:50:57;;;;;;;11.10;6.75;;;35.60;99.90;;;;;;5080779;28;20082;-59
2023/07/17 08:53:24;;;;;;;6.03;5.10;;;35.40;99.90;;;;;;5079364;28;20024;-59
2023/07/17 08:55:53;;;;;;;8.00;5.65;;;35.40;99.90;;;;;;5079226;28;20025;-59
2023/07/17 08:58:20;;;;;;;9.02;6.55;;;35.30;99.90;;;;;;5079170;28;21500;-59
2023/07/17 09:00:48;;;;;;;12.30;7.18;;;35.50;99.90;;;;;;5081173;28;20067;-59
2023/07/17 09:03:14;;;;;;;8.10;6.00;;;;;;;;;;5078974;28;20476;-59
2023/07/17 09:05:39;;;;;;;10.25;6.03;;;36.20;99.90;;;;;;5081435;28;20028;-59
2023/07/17 09:08:05;;;;;;;14.00;6.50;;;;;;;;;;5076298;28;20045;-59
2023/07/17 09:10:31;;;;;;;7.05;6.35;;;36.50;99.90;;;;;;5066640;28;20458;-59
2023/07/17 09:12:59;;;;;;;7.57;6.75;;;36.70;99.90;;;;;;5078188;28;20115;-60
2023/07/17 09:15:26;;;;;;;8.02;6.43;;;36.70;99.90;;;;;;5080394;28;20028;-60
2023/07/17 09:17:53;;;;;;;9.88;6.97;;;36.70;99.90;;;;;;5081079;28;20032;-59
2023/07/17 09:20:20;;;;;;;9.93;5.63;;;36.60;99.90;;;;;;5080510;28;20471;-59
2023/07/17 09:22:47;;;;;;;10.75;7.50;;;36.90;99.90;;;;;;5078973;28;20035;-60
2023/07/17 09:25:13;;;;;;;8.90;6.82;;;;;;;;;;5079316;28;20491;-59
2023/07/17 09:27:47;;;;;;;58.22;15.27;;;37.10;99.90;;;;;;5086387;28;20055;-60
2023/07/17 09:30:15;;;;;;;9.15;6.25;;;37.30;99.90;;;;;;5078602;28;20020;-60
2023/07/17 09:32:41;;;;;;;8.88;6.38;;;37.10;99.90;;;;;;5081899;28;20110;-59
2023/07/17 09:35:08;;;;;;;8.50;6.45;;;;;;;;;;5071204;28;20039;-59
2023/07/17 09:37:35;;;;;;;6.95;5.65;;;37.60;99.90;;;;;;5081938;28;20078;-60
2023/07/17 09:40:21;;;;;;;14.52;6.60;;;;;;;;;;5079599;28;20024;-60
2023/07/17 09:42:54;;;;;;;9.38;6.90;;;37.80;99.90;;;;;;5079026;28;20112;-60
2023/07/17 09:45:21;;;;;;;8.85;6.60;;;;;;;;;;5076072;28;20039;-59
2023/07/17 09:47:49;;;;;;;9.45;6.05;;;;;;;;;;5079001;28;20032;-59
2023/07/17 09:50:18;;;;;;;6.43;4.97;;;;;;;;;;5078519;28;20020;-59
2023/07/17 09:52:47;;;;;;;6.32;5.05;;;37.80;99.90;;;;;;5080818;28;20422;-59
2023/07/17 09:55:14;;;;;;;6.70;5.30;;;38.00;99.90;;;;;;5077327;28;20103;-59
2023/07/17 09:57:44;;;;;;;6.43;4.97;;;38.10;99.90;;;;;;5089230;28;20098;-59
2023/07/17 10:00:14;;;;;;;7.10;4.97;;;38.40;99.90;;;;;;5058365;28;20037;-59
2023/07/17 10:02:53;;;;;;;6.70;5.43;;;38.60;99.90;;;;;;5055450;28;20051;-59
2023/07/17 10:05:20;;;;;;;7.22;5.22;;;38.80;99.90;;;;;;5061730;28;20040;-59
2023/07/17 10:07:49;;;;;;;12.00;4.78;;;38.70;99.90;;;;;;5064018;28;20393;-62
2023/07/17 10:10:14;;;;;;;5.65;4.90;;;39.10;99.90;;;;;;5063943;28;20090;-59
2023/07/17 10:12:41;;;;;;;8.38;5.03;;;39.40;99.90;;;;;;5063035;28;20040;-62
2023/07/17 10:15:08;;;;;;;5.35;4.68;;;39.10;99.30;;;;;;5063238;28;20031;-62
2023/07/17 10:17:35;;;;;;;5.95;5.10;;;;;;;;;;5058137;28;20075;-62
2023/07/17 10:20:03;;;;;;;9.57;5.32;;;;;;;;;;5060441;28;20091;-62
2023/07/17 10:22:35;;;;;;;5.97;4.13;;;38.20;99.90;;;;;;5064568;28;20032;-62
2023/07/17 10:25:09;;;;;;;8.13;4.40;;;;;;;;;;5075452;28;20377;-62
2023/07/17 10:27:39;;;;;;;7.85;3.70;;;;;;;;;;5060633;28;20049;-62
2023/07/17 10:30:24;;;;;;;4.97;3.58;;;;;;;;;;5055610;28;20082;-62
2023/07/17 10:33:15;;;;;;;4.97;3.95;;;39.00;99.90;;;;;;5078512;28;20041;-61
2023/07/17 10:35:57;;;;;;;;;;;39.60;99.90;;;;;;5068306;28;20035;-62
2023/07/17 10:38:23;;;;;;;6.40;4.97;;;;;;;;;;5074645;28;19915;-62
2023/07/17 10:40:50;;;;;;;6.78;4.97;;;;;;;;;;5062852;28;20035;-63
2023/07/17 10:43:17;;;;;;;4.75;4.15;;;;;;;;;;5061562;28;20484;-62
2023/07/17 10:45:44;;;;;;;8.23;4.80;;;;;;;;;;5060255;28;20490;-62
2023/07/17 10:48:11;;;;;;;5.38;4.00;;;;;;;;;;5064865;28;20062;-62
2023/07/17 10:50:38;;;;;;;7.18;3.90;;;;;;;;;;5073463;28;20028;-62
2023/07/17 10:53:05;;;;;;;5.70;4.53;;;39.00;99.90;;;;;;5068030;28;20017;-61
2023/07/17 10:55:32;;;;;;;5.55;4.07;;;39.20;99.90;;;;;;5054346;28;20500;-62
2023/07/17 10:58:00;;;;;;;5.15;4.10;;;39.50;99.90;;;;;;5070844;28;20058;-57
2023/07/17 11:00:26;;;;;;;5.15;3.92;;;39.10;99.90;;;;;;5091033;28;20020;-60
2023/07/17 11:02:54;;;;;;;13.20;4.20;;;39.20;99.90;;;;;;5094016;28;20352;-61
2023/07/17 11:05:20;;;;;;;6.30;3.60;;;39.80;99.90;;;;;;5093700;28;20016;-61
2023/07/17 11:07:46;;;;;;;4.53;3.95;;;;;;;;;;5093428;28;20536;-60
2023/07/17 11:10:12;;;;;;;5.57;3.53;;;40.30;99.90;;;;;;5093294;28;20028;-60
2023/07/17 11:12:39;;;;;;;7.65;3.60;;;;;;;;;;5094313;28;20030;-61
2023/07/17 11:15:20;;;;;;;5.00;3.60;;;41.00;99.90;;;;;;5089212;28;20031;-61
2023/07/17 11:17:46;;;;;;;4.78;3.85;;;41.00;92.30;;;;;;5092427;28;20395;-62
2023/07/17 11:20:12;;;;;;;4.32;3.70;;;40.30;91.50;;;;;;5093355;28;20028;-61
2023/07/17 11:22:40;;;;;;;4.15;3.28;;;40.80;92.50;;;;;;5093350;28;20115;-61
2023/07/17 11:25:08;;;;;;;4.63;3.53;;;40.80;91.10;;;;;;5091907;28;20054;-62
2023/07/17 11:27:35;;;;;;;4.28;3.40;;;41.00;91.00;;;;;;5093315;28;20044;-64
2023/07/17 11:30:02;;;;;;;6.25;4.10;;;40.70;90.40;;;;;;5091541;28;20057;-65
2023/07/17 11:32:31;;;;;;;5.78;3.25;;;41.00;91.00;;;;;;5086696;28;20031;-59
2023/07/17 11:35:00;;;;;;;5.72;3.45;;;41.30;90.90;;;;;;5065034;28;20480;-65
2023/07/17 11:37:34;;;;;;;4.43;3.08;;;;;;;;;;5090164;28;20052;-62
2023/07/17 11:40:07;;;;;;;3.25;2.88;;;41.80;99.90;;;;;;5075558;28;20074;-62
2023/07/17 11:42:55;;;;;;;5.85;3.53;;;;;;;;;;5077950;28;20028;-60
2023/07/17 11:45:27;;;;;;;6.78;3.65;;;41.70;99.90;;;;;;5092766;28;20028;-63
2023/07/17 11:47:54;;;;;;;4.85;3.15;;;;;;;;;;5095323;28;20036;-63
2023/07/17 11:50:24;;;;;;;5.05;3.40;;;42.20;99.90;;;;;;5093944;28;20036;-63
2023/07/17 11:53:05;;;;;;;3.80;3.20;;;41.80;99.90;;;;;;5081533;28;20127;-63
2023/07/17 11:55:39;;;;;;;6.07;3.20;;;41.90;99.90;;;;;;5094722;28;20518;-62
2023/07/17 11:58:26;;;;;;;4.13;3.15;;;42.00;99.90;;;;;;5094454;28;20063;-62
2023/07/17 12:00:54;;;;;;;3.05;2.67;;;;;;;;;;5074798;28;20028;-63
2023/07/17 12:03:20;;;;;;;3.72;2.97;;;42.20;99.90;;;;;;5074697;28;20020;-62
2023/07/17 12:05:47;;;;;;;3.47;2.97;;;41.70;85.00;;;;;;5074683;28;20028;-63
2023/07/17 12:08:13;;;;;;;5.53;3.17;;;41.20;86.10;;;;;;5072250;28;20100;-63
2023/07/17 12:10:39;;;;;;;3.95;3.03;;;41.30;87.10;;;;;;5072852;28;20040;-63
2023/07/17 12:13:05;;;;;;;3.40;2.75;;;41.10;85.80;;;;;;5074562;28;20541;-63
2023/07/17 12:15:32;;;;;;;3.40;2.75;;;40.50;85.10;;;;;;5074968;28;20467;-63
2023/07/17 12:17:58;;;;;;;5.10;2.80;;;40.90;86.50;;;;;;5074621;28;20082;-63
2023/07/17 12:20:25;;;;;;;3.30;2.95;;;41.70;88.30;;;;;;5074164;28;20029;-63
2023/07/17 12:22:56;;;;;;;5.13;2.95;;;42.20;93.10;;;;;;5074378;28;20067;-63
2023/07/17 12:25:22;;;;;;;4.28;2.92;;;42.10;85.90;;;;;;5074690;28;20073;-63
2023/07/17 12:27:48;;;;;;;5.70;3.25;;;42.10;84.50;;;;;;5073014;28;20032;-62
2023/07/17 12:30:16;;;;;;;6.80;2.90;;;;;;;;;;5073908;28;20027;-63
2023/07/17 12:32:42;;;;;;;5.25;3.50;;;;;;;;;;5082653;28;20024;-63
2023/07/17 12:35:08;;;;;;;7.10;3.90;;;42.40;97.80;;;;;;5073708;28;20040;-64
2023/07/17 12:37:35;;;;;;;3.33;2.67;;;;;;;;;;5086429;28;20047;-60
2023/07/17 12:40:01;;;;;;;3.78;3.38;;;41.40;95.00;;;;;;5082660;28;20024;-61
2023/07/17 12:42:27;;;;;;;4.07;3.25;;;41.00;83.80;;;;;;5092867;28;20419;-60
2023/07/17 12:44:53;;;;;;;4.05;2.78;;;41.60;86.30;;;;;;5094518;28;20136;-59
2023/07/17 12:47:18;;;;;;;5.95;3.10;;;41.90;86.60;;;;;;5093810;28;20391;-59
2023/07/17 12:49:44;;;;;;;4.28;3.50;;;42.30;90.90;;;;;;5094204;28;20031;-59
2023/07/17 12:52:10;;;;;;;3.83;2.95;;;42.20;84.30;;;;;;5073405;28;20035;-59
2023/07/17 12:54:36;;;;;;;4.00;2.90;;;42.30;84.30;;;;;;5057908;28;20462;-59
2023/07/17 12:57:02;;;;;;;5.38;3.15;;;;;;;;;;5071776;28;20585;-59
2023/07/17 12:59:28;;;;;;;3.05;2.65;;;42.40;84.60;;;;;;5071347;28;20136;-59
2023/07/17 13:01:54;;;;;;;5.57;3.00;;;42.80;91.80;;;;;;5071959;28;20119;-60
2023/07/17 13:04:20;;;;;;;3.38;2.80;;;42.60;89.60;;;;;;5073595;28;20024;-59
2023/07/17 13:06:46;;;;;;;5.05;2.85;;;42.70;85.20;;;;;;5075068;28;20025;-59